createdAt,value
2022-12-14T00:02:06.844Z,8.17
2022-12-14T00:04:35.073Z,8.83
2022-12-14T00:07:03.279Z,8.30
2022-12-14T00:09:33.737Z,8.10
2022-12-14T00:12:01.927Z,8.97
2022-12-14T00:14:31.582Z,7.93
2022-12-14T00:16:59.710Z,9.23
2022-12-14T00:19:28.099Z,7.70
2022-12-14T00:21:56.335Z,8.73
2022-12-14T00:24:24.636Z,8.17
2022-12-14T00:26:52.940Z,8.67
2022-12-14T00:29:21.793Z,8.47
2022-12-14T00:31:52.640Z,8.10
2022-12-14T00:34:20.980Z,8.73
2022-12-14T00:36:49.173Z,8.43
2022-12-14T00:39:17.454Z,8.17
2022-12-14T00:41:45.725Z,9.13
2022-12-14T00:44:13.948Z,7.83
2022-12-14T00:46:42.287Z,8.93
2022-12-14T00:49:12.507Z,8.33
2022-12-14T00:51:40.783Z,8.30
2022-12-14T00:54:09.165Z,9.63
2022-12-14T00:56:37.411Z,7.97
2022-12-14T00:59:08.514Z,8.83
2022-12-14T01:01:37.108Z,9.93
2022-12-14T01:04:22.509Z,8.93
2022-12-14T01:06:54.086Z,8.33
2022-12-14T01:09:24.908Z,8.93
2022-12-14T01:11:53.666Z,8.47
2022-12-14T01:14:23.373Z,7.60
2022-12-14T01:16:52.632Z,7.80
2022-12-14T01:19:20.956Z,8.23
2022-12-14T01:21:49.198Z,7.90
2022-12-14T01:24:18.829Z,8.50
2022-12-14T01:26:47.056Z,8.70
2022-12-14T01:29:16.522Z,9.20
2022-12-14T01:31:45.079Z,8.13
2022-12-14T01:34:17.479Z,8.73
2022-12-14T01:36:48.538Z,8.27
2022-12-14T01:39:18.879Z,8.50
2022-12-14T01:41:49.579Z,8.70
2022-12-14T01:45:00.329Z,8.13
2022-12-14T01:47:34.853Z,8.40
2022-12-14T01:50:11.652Z,8.87
2022-12-14T01:52:43.624Z,8.17
2022-12-14T01:55:17.140Z,8.53
2022-12-14T01:57:50.419Z,8.33
2022-12-14T02:00:19.071Z,8.60
2022-12-14T02:02:53.668Z,8.97
2022-12-14T02:05:23.983Z,7.57
2022-12-14T02:07:55.405Z,7.70
2022-12-14T02:10:28.961Z,7.37
2022-12-14T02:13:02.019Z,8.17
2022-12-14T02:15:34.254Z,8.90
2022-12-14T02:18:04.708Z,7.80
2022-12-14T02:20:45.408Z,9.27
2022-12-14T02:23:46.235Z,9.00
2022-12-14T02:26:38.879Z,8.63
2022-12-14T02:29:28.151Z,8.93
2022-12-14T02:32:06.040Z,8.30
2022-12-14T02:34:44.004Z,7.43
2022-12-14T02:37:19.402Z,9.00
2022-12-14T02:39:57.204Z,8.53
2022-12-14T02:42:31.978Z,8.87
2022-12-14T02:45:10.713Z,8.93
2022-12-14T02:47:46.977Z,8.83
2022-12-14T02:50:21.851Z,9.30
2022-12-14T02:52:59.853Z,8.83
2022-12-14T02:55:32.908Z,8.63
2022-12-14T02:58:04.393Z,8.80
2022-12-14T03:00:37.744Z,9.20
2022-12-14T03:03:07.775Z,8.97
2022-12-14T03:05:36.370Z,8.27
2022-12-14T03:08:06.726Z,8.50
2022-12-14T03:10:40.263Z,9.73
2022-12-14T03:13:17.802Z,8.93
2022-12-14T03:15:53.979Z,8.67
2022-12-14T03:18:25.545Z,7.83
2022-12-14T03:20:56.347Z,7.40
2022-12-14T03:23:28.222Z,8.50
2022-12-14T03:26:01.153Z,8.37
2022-12-14T03:28:36.730Z,9.50
2022-12-14T03:31:13.414Z,7.93
2022-12-14T03:33:44.325Z,8.27
2022-12-14T03:36:17.544Z,8.20
2022-12-14T03:38:50.268Z,8.93
2022-12-14T03:41:29.949Z,10.00
2022-12-14T03:44:17.356Z,8.97
2022-12-14T03:46:57.469Z,8.07
2022-12-14T03:49:36.580Z,9.60
2022-12-14T03:52:09.814Z,8.97
2022-12-14T03:54:50.801Z,10.23
2022-12-14T03:57:28.838Z,8.00
2022-12-14T04:00:02.878Z,8.43
2022-12-14T04:02:40.999Z,8.83
2022-12-14T04:05:14.688Z,9.70
2022-12-14T04:07:48.467Z,9.23
2022-12-14T04:10:41.252Z,9.47
2022-12-14T04:13:31.724Z,10.63
2022-12-14T04:16:26.223Z,9.37
2022-12-14T04:19:00.655Z,10.07
2022-12-14T04:21:38.703Z,8.87
2022-12-14T04:24:30.881Z,9.60
2022-12-14T04:27:03.283Z,10.27
2022-12-14T04:29:54.384Z,9.37
2022-12-14T04:32:25.897Z,9.93
2022-12-14T04:34:59.438Z,8.70
2022-12-14T04:37:29.574Z,9.53
2022-12-14T04:40:03.809Z,10.07
2022-12-14T04:42:35.481Z,9.27
2022-12-14T04:45:09.317Z,8.63
2022-12-14T04:47:44.614Z,9.83
2022-12-14T04:50:20.844Z,10.40
2022-12-14T04:52:53.981Z,10.47
2022-12-14T04:55:29.611Z,9.10
2022-12-14T04:58:02.116Z,10.90
2022-12-14T05:00:38.869Z,10.23
2022-12-14T05:03:28.349Z,10.37
2022-12-14T05:06:08.408Z,10.03
2022-12-14T05:08:59.824Z,9.47
2022-12-14T05:14:29.981Z,9.00
2022-12-14T05:17:02.307Z,9.07
2022-12-14T05:19:33.262Z,9.53
2022-12-14T05:22:06.792Z,9.50
2022-12-14T05:24:35.125Z,9.63
2022-12-14T05:27:03.306Z,10.13
2022-12-14T05:29:31.521Z,10.43
2022-12-14T05:32:02.462Z,10.47
2022-12-14T05:34:30.860Z,9.07
2022-12-14T05:36:59.482Z,9.90
2022-12-14T05:39:29.149Z,8.97
2022-12-14T05:41:57.913Z,9.73
2022-12-14T05:44:26.197Z,9.43
2022-12-14T05:46:54.453Z,10.07
2022-12-14T05:49:22.588Z,11.73
2022-12-14T05:51:50.919Z,11.23
2022-12-14T05:54:19.104Z,9.50
2022-12-14T05:56:48.809Z,11.60
2022-12-14T05:59:18.282Z,11.57
2022-12-14T06:01:49.137Z,12.13
2022-12-14T06:04:19.566Z,10.37
2022-12-14T06:06:47.975Z,9.70
2022-12-14T06:09:17.479Z,11.27
2022-12-14T06:11:49.532Z,10.90
2022-12-14T06:14:18.156Z,10.90
2022-12-14T06:16:48.168Z,9.83
2022-12-14T06:19:17.150Z,10.07
2022-12-14T06:21:49.796Z,11.10
2022-12-14T06:24:18.122Z,10.40
2022-12-14T06:26:50.742Z,11.53
2022-12-14T06:29:20.638Z,11.53
2022-12-14T06:31:49.588Z,9.60
2022-12-14T06:34:18.821Z,12.27
2022-12-14T06:36:48.406Z,10.33
2022-12-14T06:39:17.932Z,9.47
2022-12-14T06:41:52.281Z,10.90
2022-12-14T06:44:21.096Z,9.67
2022-12-14T06:46:49.605Z,11.33
2022-12-14T06:49:18.700Z,11.00
2022-12-14T06:51:46.997Z,10.47
2022-12-14T06:54:16.803Z,10.00
2022-12-14T06:56:46.598Z,10.37
2022-12-14T06:59:17.173Z,10.63
2022-12-14T07:01:46.247Z,10.67
2022-12-14T07:04:21.417Z,9.90
2022-12-14T07:06:49.851Z,10.20
2022-12-14T07:09:18.036Z,9.80
2022-12-14T07:11:46.273Z,11.03
2022-12-14T07:14:18.508Z,9.77
2022-12-14T07:16:48.534Z,10.03
2022-12-14T07:19:17.535Z,10.07
2022-12-14T07:21:45.775Z,10.33
2022-12-14T07:24:14.066Z,10.03
2022-12-14T07:26:42.345Z,9.93
2022-12-14T07:29:12.130Z,10.17
2022-12-14T07:31:42.043Z,10.73
2022-12-14T07:34:14.354Z,9.50
2022-12-14T07:36:43.373Z,10.03
2022-12-14T07:39:14.803Z,8.70
2022-12-14T07:41:43.467Z,9.23
2022-12-14T07:44:12.492Z,10.07
2022-12-14T07:46:42.752Z,10.33
2022-12-14T07:49:12.237Z,10.30
2022-12-14T07:51:44.334Z,8.90
2022-12-14T07:54:14.140Z,9.53
2022-12-14T07:56:44.721Z,11.03
2022-12-14T07:59:16.442Z,8.87
2022-12-14T08:01:46.364Z,9.63
2022-12-14T08:04:16.369Z,10.60
2022-12-14T08:06:46.950Z,9.47
2022-12-14T08:09:16.823Z,9.70
2022-12-14T08:11:45.260Z,11.00
2022-12-14T08:14:17.208Z,9.73
2022-12-14T08:16:47.596Z,10.50
2022-12-14T08:19:16.277Z,9.37
2022-12-14T08:21:45.841Z,11.47
2022-12-14T08:24:14.911Z,10.53
2022-12-14T08:26:43.166Z,9.57
2022-12-14T08:29:17.504Z,11.37
2022-12-14T08:31:47.395Z,10.27
2022-12-14T08:34:22.045Z,9.57
2022-12-14T08:36:50.832Z,9.03
2022-12-14T08:39:19.083Z,10.10
2022-12-14T08:41:47.447Z,10.00
2022-12-14T08:44:17.537Z,10.47
2022-12-14T08:46:49.142Z,12.60
2022-12-14T08:49:17.475Z,11.47
2022-12-14T08:51:45.715Z,9.37
2022-12-14T08:54:16.963Z,9.50
2022-12-14T08:56:45.213Z,10.33
2022-12-14T08:59:36.615Z,10.00
2022-12-14T09:02:05.980Z,10.27
2022-12-14T09:04:36.073Z,8.90
2022-12-14T09:07:04.277Z,10.97
2022-12-14T09:09:33.215Z,10.30
2022-12-14T09:12:06.639Z,11.87
2022-12-14T09:14:35.016Z,9.93
2022-12-14T09:17:04.924Z,10.40
2022-12-14T09:19:33.175Z,10.97
2022-12-14T09:22:01.427Z,10.67
2022-12-14T09:24:29.818Z,10.83
2022-12-14T09:27:00.843Z,9.73
2022-12-14T09:29:30.095Z,10.23
2022-12-14T09:31:59.374Z,11.90
2022-12-14T09:34:29.650Z,11.23
2022-12-14T09:37:05.431Z,11.40
2022-12-14T09:39:34.421Z,9.10
2022-12-14T09:42:13.868Z,10.77
2022-12-14T09:44:53.497Z,10.87
2022-12-14T09:47:29.325Z,10.77
2022-12-14T09:50:03.468Z,9.90
2022-12-14T09:52:38.426Z,10.43
2022-12-14T09:55:22.649Z,10.37
2022-12-14T09:57:56.810Z,10.60
2022-12-14T10:00:25.389Z,10.13
2022-12-14T10:03:20.345Z,11.00
2022-12-14T10:06:10.466Z,11.40
2022-12-14T10:08:48.199Z,11.53
2022-12-14T10:11:29.943Z,10.20
2022-12-14T10:14:11.401Z,11.17
2022-12-14T10:16:51.662Z,9.47
2022-12-14T10:19:38.873Z,10.17
2022-12-14T10:22:14.705Z,9.93
2022-12-14T10:24:49.296Z,11.47
2022-12-14T10:27:23.353Z,9.53
2022-12-14T10:29:58.026Z,11.77
2022-12-14T10:32:31.425Z,10.70
2022-12-14T10:35:00.636Z,11.43
2022-12-14T10:37:36.303Z,8.77
2022-12-14T10:40:27.402Z,10.17
2022-12-14T10:43:21.861Z,11.53
2022-12-14T10:45:58.085Z,10.10
2022-12-14T10:48:35.472Z,11.80
2022-12-14T10:51:08.581Z,11.83
2022-12-14T10:53:44.702Z,11.93
2022-12-14T10:56:21.156Z,10.93
2022-12-14T10:59:32.201Z,11.17
2022-12-14T11:02:09.612Z,12.07
2022-12-14T11:04:41.131Z,10.67
2022-12-14T11:07:11.798Z,11.40
2022-12-14T11:09:44.640Z,11.80
2022-12-14T11:12:20.926Z,11.90
2022-12-14T11:14:55.181Z,11.23
2022-12-14T11:17:36.078Z,11.00
2022-12-14T11:20:07.811Z,10.23
2022-12-14T11:22:45.413Z,11.80
2022-12-14T11:25:36.625Z,11.77
2022-12-14T11:28:18.317Z,12.63
2022-12-14T11:30:55.921Z,10.97
2022-12-14T11:33:27.356Z,12.40
2022-12-14T11:35:55.755Z,10.40
2022-12-14T11:38:25.207Z,12.23
2022-12-14T11:40:55.078Z,13.20
2022-12-14T11:43:28.521Z,12.77
2022-12-14T11:45:59.196Z,10.97
2022-12-14T11:48:29.885Z,13.13
2022-12-14T11:51:11.610Z,12.13
2022-12-14T11:53:40.245Z,12.93
2022-12-14T11:56:15.995Z,13.20
2022-12-14T11:58:50.356Z,11.13
2022-12-14T12:01:21.582Z,13.00
2022-12-14T12:03:52.990Z,11.13
2022-12-14T12:06:23.906Z,10.90
2022-12-14T12:08:57.682Z,12.37
2022-12-14T12:11:31.932Z,12.73
2022-12-14T12:14:02.868Z,13.13
2022-12-14T12:16:33.063Z,12.00
2022-12-14T12:19:12.085Z,12.60
2022-12-14T12:21:42.582Z,13.07
2022-12-14T12:24:18.548Z,11.97
2022-12-14T12:26:52.058Z,11.63
2022-12-14T12:29:27.847Z,12.27
2022-12-14T12:32:00.146Z,11.90
2022-12-14T12:34:32.701Z,11.80
2022-12-14T12:39:58.736Z,11.63
2022-12-14T12:42:39.438Z,12.17
2022-12-14T12:45:17.782Z,10.90
2022-12-14T12:47:51.130Z,11.93
2022-12-14T12:50:23.141Z,12.40
2022-12-14T12:53:03.163Z,12.67
2022-12-14T12:55:37.412Z,12.10
2022-12-14T12:58:10.414Z,13.07
2022-12-14T13:00:41.525Z,11.07
2022-12-14T13:03:14.363Z,13.38
2022-12-14T13:05:46.652Z,13.63
2022-12-14T13:08:25.404Z,12.00
2022-12-14T13:13:51.166Z,13.77
2022-12-14T13:16:27.426Z,11.63
2022-12-14T13:19:32.463Z,11.17
2022-12-14T13:21:53.081Z,13.53
2022-12-14T13:24:24.427Z,13.23
2022-12-14T13:27:06.109Z,11.83
2022-12-14T13:29:53.436Z,13.43
2022-12-14T13:32:37.645Z,12.20
2022-12-14T13:35:17.137Z,15.27
2022-12-14T13:38:07.101Z,12.67
2022-12-14T13:41:07.342Z,12.67
2022-12-14T13:43:53.132Z,13.47
2022-12-14T13:46:26.024Z,12.40
2022-12-14T13:48:56.636Z,13.90
2022-12-14T13:51:30.273Z,13.53
2022-12-14T13:54:00.479Z,14.00
2022-12-14T13:56:33.471Z,13.03
2022-12-14T13:59:04.204Z,12.20
2022-12-14T14:02:01.161Z,14.57
2022-12-14T14:04:31.498Z,13.30
2022-12-14T14:07:33.169Z,13.53
2022-12-14T14:10:05.111Z,12.13
2022-12-14T14:12:45.209Z,14.67
2022-12-14T14:16:11.321Z,12.67
2022-12-14T14:18:38.316Z,13.73
2022-12-14T14:21:32.956Z,13.20
2022-12-14T14:24:02.786Z,14.33
2022-12-14T14:26:33.576Z,13.60
2022-12-14T14:29:26.447Z,14.97
2022-12-14T14:32:00.885Z,13.93
2022-12-14T14:34:49.666Z,15.47
2022-12-14T14:37:28.880Z,13.37
2022-12-14T14:40:21.662Z,12.93
2022-12-14T14:43:00.460Z,13.20
2022-12-14T14:45:39.472Z,14.47
2022-12-14T14:48:23.068Z,15.13
2022-12-14T14:51:04.552Z,12.47
2022-12-14T14:53:34.807Z,14.00
2022-12-14T14:56:35.474Z,14.80
2022-12-14T14:59:51.176Z,13.47
2022-12-14T15:02:35.179Z,13.80
2022-12-14T15:05:40.938Z,15.40
2022-12-14T15:07:59.039Z,14.87
2022-12-14T15:10:33.713Z,14.37
2022-12-14T15:13:06.109Z,15.00
2022-12-14T15:15:38.393Z,13.27
2022-12-14T15:18:19.820Z,14.87
2022-12-14T15:20:59.078Z,13.80
2022-12-14T15:23:33.862Z,14.73
2022-12-14T15:26:04.291Z,14.73
2022-12-14T15:28:32.522Z,14.13
2022-12-14T15:31:01.354Z,14.33
2022-12-14T15:33:33.401Z,15.13
2022-12-14T15:36:07.021Z,15.93
2022-12-14T15:38:38.164Z,13.83
2022-12-14T15:41:08.268Z,15.90
2022-12-14T15:43:36.741Z,14.17
2022-12-14T15:46:05.063Z,14.73
2022-12-14T15:48:34.956Z,14.20
2022-12-14T15:51:05.594Z,15.73
2022-12-14T15:53:38.882Z,15.70
2022-12-14T15:56:20.119Z,15.70
2022-12-14T15:58:49.134Z,13.73
2022-12-14T16:01:23.008Z,15.10
2022-12-14T16:03:54.803Z,15.30
2022-12-14T16:06:25.372Z,14.33
2022-12-14T16:08:59.087Z,15.17
2022-12-14T16:11:33.566Z,14.70
2022-12-14T16:14:04.847Z,14.37
2022-12-14T16:16:33.248Z,14.47
2022-12-14T16:19:25.205Z,14.80
2022-12-14T16:22:05.422Z,14.80
2022-12-14T16:24:35.453Z,16.20
2022-12-14T16:27:04.534Z,15.60
2022-12-14T16:29:34.917Z,14.97
2022-12-14T16:32:05.058Z,14.47
2022-12-14T16:34:33.970Z,15.13
2022-12-14T16:39:54.587Z,15.60
2022-12-14T16:42:24.387Z,15.13
2022-12-14T16:44:54.196Z,15.77
2022-12-14T16:47:29.148Z,15.17
2022-12-14T16:49:59.816Z,16.20
2022-12-14T16:52:30.803Z,15.73
2022-12-14T16:55:13.252Z,16.93
2022-12-14T16:57:52.042Z,15.57
2022-12-14T17:00:23.562Z,16.03
2022-12-14T17:02:56.752Z,16.60
2022-12-14T17:05:27.103Z,16.33
2022-12-14T17:07:55.458Z,16.70
2022-12-14T17:10:28.332Z,17.53
2022-12-14T17:12:59.007Z,17.83
2022-12-14T17:15:29.311Z,17.07
2022-12-14T17:18:01.473Z,18.20
2022-12-14T17:20:33.173Z,19.00
2022-12-14T17:23:03.038Z,17.57
2022-12-14T17:25:34.208Z,16.97
2022-12-14T17:28:02.739Z,18.00
2022-12-14T17:30:31.760Z,16.07
2022-12-14T17:33:00.151Z,18.50
2022-12-14T17:35:31.448Z,17.23
2022-12-14T17:38:00.350Z,16.37
2022-12-14T17:40:29.123Z,18.10
2022-12-14T17:43:00.148Z,17.60
2022-12-14T17:45:30.597Z,18.20
2022-12-14T17:47:59.366Z,17.77
2022-12-14T17:50:27.676Z,17.20
2022-12-14T17:52:56.106Z,19.53
2022-12-14T17:55:27.083Z,18.93
2022-12-14T17:57:55.774Z,19.23
2022-12-14T18:00:44.683Z,19.37
2022-12-14T18:03:15.439Z,18.50
2022-12-14T18:05:48.568Z,20.77
2022-12-14T18:08:17.340Z,18.83
2022-12-14T18:10:46.017Z,19.47
2022-12-14T18:13:14.829Z,20.43
2022-12-14T18:15:49.946Z,20.07
2022-12-14T18:18:18.963Z,19.27
2022-12-14T18:20:51.436Z,18.07
2022-12-14T18:23:20.354Z,19.40
2022-12-14T18:25:50.434Z,19.07
2022-12-14T18:28:18.822Z,20.23
2022-12-14T18:30:52.322Z,19.67
2022-12-14T18:33:23.361Z,20.53
2022-12-14T18:35:52.473Z,23.07
2022-12-14T18:38:20.887Z,20.40
2022-12-14T18:40:51.061Z,20.30
2022-12-14T18:43:21.500Z,19.85
2022-12-14T18:45:52.945Z,21.03
2022-12-14T18:48:21.381Z,21.43
2022-12-14T18:50:50.232Z,23.00
2022-12-14T18:53:21.094Z,22.47
2022-12-14T18:55:50.523Z,23.47
2022-12-14T18:58:21.839Z,22.93
2022-12-14T19:00:52.879Z,23.60
2022-12-14T19:03:21.542Z,21.70
2022-12-14T19:05:49.840Z,20.47
2022-12-14T19:08:18.528Z,22.70
2022-12-14T19:10:50.282Z,22.40
2022-12-14T19:13:25.777Z,21.50
2022-12-14T19:15:56.293Z,21.27
2022-12-14T19:18:24.643Z,24.63
2022-12-14T19:20:52.924Z,22.83
2022-12-14T19:23:21.461Z,21.53
2022-12-14T19:25:49.829Z,24.10
2022-12-14T19:28:33.675Z,22.23
2022-12-14T19:31:04.395Z,22.07
2022-12-14T19:33:33.573Z,21.30
2022-12-14T19:36:05.547Z,22.17
2022-12-14T19:38:35.826Z,21.93
2022-12-14T19:41:06.489Z,26.17
2022-12-14T19:43:36.380Z,23.60
2022-12-14T19:46:09.457Z,22.97
2022-12-14T19:48:38.893Z,23.43
2022-12-14T19:51:08.724Z,21.07
2022-12-14T19:53:37.178Z,22.87
2022-12-14T19:56:06.478Z,20.57
2022-12-14T19:58:35.285Z,21.80
2022-12-14T20:01:10.751Z,21.10
2022-12-14T20:03:39.540Z,22.43
2022-12-14T20:06:08.814Z,21.73
2022-12-14T20:08:38.243Z,21.53
2022-12-14T20:11:07.192Z,23.13
2022-12-14T20:13:35.662Z,23.97
2022-12-14T20:16:04.290Z,22.43
2022-12-14T20:18:34.458Z,21.43
2022-12-14T20:21:04.052Z,22.73
2022-12-14T20:23:35.354Z,22.63
2022-12-14T20:26:04.676Z,21.10
2022-12-14T20:28:33.450Z,22.30
2022-12-14T20:31:01.997Z,23.87
2022-12-14T20:33:31.100Z,22.85
2022-12-14T20:36:01.652Z,20.57
2022-12-14T20:38:30.037Z,20.20
2022-12-14T20:41:05.501Z,24.03
2022-12-14T20:43:37.672Z,21.33
2022-12-14T20:46:07.342Z,22.67
2022-12-14T20:48:35.828Z,20.50
2022-12-14T20:51:05.982Z,21.23
2022-12-14T20:53:37.130Z,22.92
2022-12-14T20:56:05.761Z,22.23
2022-12-14T20:58:34.176Z,21.80
2022-12-14T21:01:08.575Z,22.43
2022-12-14T21:03:38.334Z,22.63
2022-12-14T21:06:08.754Z,22.60
2022-12-14T21:08:57.997Z,21.33
2022-12-14T21:11:43.686Z,21.73
2022-12-14T21:14:12.001Z,21.83
2022-12-14T21:16:42.948Z,22.33
2022-12-14T21:19:12.657Z,22.13
2022-12-14T21:21:46.734Z,24.87
2022-12-14T21:24:37.267Z,22.05
2022-12-14T21:27:06.720Z,24.00
2022-12-14T21:29:35.048Z,23.27
2022-12-14T21:32:04.342Z,22.52
2022-12-14T21:34:32.944Z,21.23
2022-12-14T21:37:02.686Z,23.00
2022-12-14T21:39:30.917Z,21.63
2022-12-14T21:42:14.742Z,22.87
2022-12-14T21:44:47.527Z,24.20
2022-12-14T21:47:18.039Z,23.53
2022-12-14T21:49:49.223Z,24.10
2022-12-14T21:52:21.152Z,22.60
2022-12-14T21:54:49.760Z,25.02
2022-12-14T21:57:36.920Z,25.08
2022-12-14T22:00:06.490Z,22.73
2022-12-14T22:02:34.924Z,22.97
2022-12-14T22:05:03.357Z,24.70
2022-12-14T22:07:34.793Z,23.25
2022-12-14T22:10:03.118Z,22.27
2022-12-14T22:12:31.398Z,23.63
2022-12-14T22:14:59.660Z,24.43
2022-12-14T22:17:30.912Z,22.93
2022-12-14T22:19:59.566Z,24.83
2022-12-14T22:22:27.788Z,23.97
2022-12-14T22:25:00.617Z,21.70
2022-12-14T22:27:29.122Z,23.10
2022-12-14T22:29:57.407Z,24.43
2022-12-14T22:32:25.691Z,22.40
2022-12-14T22:34:54.065Z,22.57
2022-12-14T22:37:22.333Z,24.40
2022-12-14T22:39:50.657Z,21.33
2022-12-14T22:42:20.246Z,22.70
2022-12-14T22:44:50.229Z,23.43
2022-12-14T22:47:18.717Z,22.30
2022-12-14T22:49:47.229Z,21.27
2022-12-14T22:52:18.604Z,23.00
2022-12-14T22:54:51.243Z,25.10
2022-12-14T22:57:22.617Z,22.93
2022-12-14T22:59:57.329Z,22.30
2022-12-14T23:02:26.126Z,23.67
2022-12-14T23:04:54.526Z,22.83
2022-12-14T23:07:22.873Z,22.30
2022-12-14T23:10:08.976Z,22.87
2022-12-14T23:12:55.729Z,21.73
2022-12-14T23:15:41.353Z,24.53
2022-12-14T23:18:26.507Z,22.20
2022-12-14T23:21:12.345Z,22.83
2022-12-14T23:23:58.558Z,21.50
2022-12-14T23:26:44.019Z,22.03
2022-12-14T23:29:31.131Z,23.50
2022-12-14T23:32:16.912Z,21.80
2022-12-14T23:35:02.589Z,22.60
2022-12-14T23:37:48.068Z,22.23
2022-12-14T23:40:33.468Z,21.90
2022-12-14T23:43:26.580Z,21.37
2022-12-14T23:46:13.951Z,21.17
2022-12-14T23:48:59.857Z,22.07
2022-12-14T23:51:45.418Z,22.37
2022-12-14T23:54:31.212Z,23.87
2022-12-14T23:57:16.515Z,21.77
